Station: EBLB - 29/05/2017 09:25Z (il y a 5 minutes)
EBLB 290925Z AUTO 19007KT 3400 NCD 25/15 Q1015 YLO
Vent du 190º - 7 kt
Visibilité: 3400 m
Pas de nuages détectés
Température: +25ºC - Point de rosée: +15ºC - QNH: 1015 hPa
Code couleur militaire: YLO (conditions IMC ou marginales)